createdAt,value
2022-12-14T00:03:04.304Z,32.73447
2022-12-14T00:08:05.422Z,32.832
2022-12-14T00:13:06.331Z,32.80945
2022-12-14T00:18:07.255Z,32.82126
2022-12-14T00:23:08.209Z,32.95196
2022-12-14T00:28:09.138Z,32.92953
2022-12-14T00:33:10.134Z,32.95848
2022-12-14T00:38:11.313Z,32.91891
2022-12-14T00:43:12.253Z,32.99327
2022-12-14T00:48:13.318Z,32.9764
2022-12-14T00:53:14.243Z,33.09579
2022-12-14T00:58:15.160Z,32.9825
2022-12-14T01:03:16.205Z,32.89807
2022-12-14T01:08:17.172Z,32.94944
2022-12-14T01:13:18.089Z,32.93839
2022-12-14T01:18:18.984Z,32.91617
2022-12-14T01:23:19.928Z,32.96189
2022-12-14T01:28:20.847Z,33.0073
2022-12-14T01:33:21.760Z,32.99608
2022-12-14T01:38:22.921Z,33.00225
2022-12-14T01:43:24.155Z,33.12717
2022-12-14T01:48:25.364Z,33.06501
2022-12-14T01:53:26.670Z,33.00849
2022-12-14T01:58:27.925Z,33.00891
2022-12-14T02:03:29.139Z,32.93588
2022-12-14T02:08:30.462Z,33.03305
2022-12-14T02:13:31.629Z,33.14082
2022-12-14T02:18:32.635Z,33.03856
2022-12-14T02:23:33.597Z,33.11805
2022-12-14T02:28:34.471Z,33.02689
2022-12-14T02:33:35.453Z,32.96473
2022-12-14T02:38:36.459Z,32.89257
2022-12-14T02:43:37.376Z,33.01139
2022-12-14T02:48:38.248Z,32.96636
2022-12-14T02:53:39.701Z,33.04125
2022-12-14T02:58:40.816Z,33.12143
2022-12-14T03:03:41.697Z,33.04761
2022-12-14T03:08:42.745Z,32.99712
2022-12-14T03:13:43.640Z,33.06505
2022-12-14T03:18:44.530Z,32.90171
2022-12-14T03:23:45.423Z,32.98102
2022-12-14T03:28:46.397Z,32.97573
2022-12-14T03:33:47.325Z,32.97032
2022-12-14T03:38:48.308Z,32.9657
2022-12-14T03:43:49.717Z,32.97746
2022-12-14T03:48:50.960Z,33.00013
2022-12-14T03:53:51.842Z,33.00683
2022-12-14T03:58:56.972Z,33.12538
2022-12-14T04:03:58.316Z,33.06866
2022-12-14T04:08:59.593Z,33.03528
2022-12-14T04:14:00.573Z,32.98993
2022-12-14T04:19:01.528Z,33.02972
2022-12-14T04:24:02.415Z,33.05315
2022-12-14T04:29:03.653Z,33.0133
2022-12-14T04:34:04.521Z,33.00851
2022-12-14T04:39:05.534Z,33.06487
2022-12-14T04:44:06.436Z,32.98495
2022-12-14T04:49:07.366Z,32.9848
2022-12-14T04:54:08.254Z,33.00142
2022-12-14T04:59:09.127Z,32.92817
2022-12-14T05:04:12.799Z,33.01417
2022-12-14T05:09:14.040Z,33.06543
2022-12-14T05:14:15.048Z,33.02036
2022-12-14T05:19:16.021Z,32.96992
2022-12-14T05:24:16.952Z,32.93557
2022-12-14T05:29:17.887Z,32.89664
2022-12-14T05:34:18.784Z,32.9818
2022-12-14T05:39:19.752Z,32.9759
2022-12-14T05:44:20.696Z,33.02118
2022-12-14T05:49:21.655Z,32.99898
2022-12-14T05:54:22.579Z,32.97648
2022-12-14T05:59:23.515Z,33.028
2022-12-14T06:04:24.554Z,33.06223
2022-12-14T06:09:25.661Z,33.00542
2022-12-14T06:14:26.585Z,33.07849
2022-12-14T06:19:27.505Z,33.01684
2022-12-14T06:24:28.428Z,33.02306
2022-12-14T06:29:29.510Z,33.02844
2022-12-14T06:34:34.083Z,32.95458
2022-12-14T06:39:39.228Z,32.91481
2022-12-14T06:44:40.091Z,32.92605
2022-12-14T06:49:41.008Z,32.91518
2022-12-14T06:54:41.961Z,33.0164
2022-12-14T06:59:42.904Z,32.96553
2022-12-14T07:04:43.988Z,32.94241
2022-12-14T07:09:44.964Z,32.83984
2022-12-14T07:14:45.886Z,32.77208
2022-12-14T07:19:49.118Z,32.69925
2022-12-14T07:24:50.295Z,32.6881
2022-12-14T07:29:51.235Z,32.68278
2022-12-14T07:34:52.164Z,32.69928
2022-12-14T07:39:53.147Z,32.73263
2022-12-14T07:44:54.068Z,32.75475
2022-12-14T07:49:55.129Z,32.69252
2022-12-14T07:54:56.077Z,32.66888
2022-12-14T07:59:57.717Z,32.57785
2022-12-14T08:04:58.751Z,32.72987
2022-12-14T08:09:59.948Z,32.64418
2022-12-14T08:15:00.925Z,32.67799
2022-12-14T08:20:01.810Z,32.69416
2022-12-14T08:25:02.726Z,32.76028
2022-12-14T08:30:03.657Z,32.67387
2022-12-14T08:35:04.552Z,32.5985
2022-12-14T08:40:12.264Z,32.50695
2022-12-14T08:45:13.248Z,32.60825
2022-12-14T08:50:14.163Z,32.64627
2022-12-14T08:55:15.045Z,32.60521
2022-12-14T09:00:15.965Z,32.56492
2022-12-14T09:05:16.875Z,32.69959
2022-12-14T09:10:17.782Z,32.65842
2022-12-14T09:15:18.708Z,32.61095
2022-12-14T09:20:19.593Z,32.51719
2022-12-14T09:25:20.479Z,32.276
2022-12-14T09:30:26.352Z,32.23579
2022-12-14T09:35:27.629Z,32.1377
2022-12-14T09:40:28.764Z,31.96418
2022-12-14T09:45:29.863Z,31.69967
2022-12-14T09:50:30.933Z,31.5835
2022-12-14T09:55:31.882Z,31.60452
2022-12-14T10:00:32.831Z,31.61044
2022-12-14T10:05:33.718Z,31.44195
2022-12-14T10:10:34.732Z,31.32284
2022-12-14T10:15:35.744Z,31.23477
2022-12-14T10:20:36.647Z,31.18707
2022-12-14T10:25:37.578Z,31.07144
2022-12-14T10:30:38.542Z,30.98894
2022-12-14T10:35:39.470Z,30.95683
2022-12-14T10:40:40.471Z,30.82306
2022-12-14T10:45:42.348Z,30.74576
2022-12-14T10:50:43.592Z,30.55888
2022-12-14T10:55:50.788Z,30.54026
2022-12-14T11:00:51.771Z,30.41311
2022-12-14T11:05:52.774Z,30.35507
2022-12-14T11:10:53.695Z,30.3436
2022-12-14T11:15:54.615Z,30.39382
2022-12-14T11:20:55.533Z,30.04418
2022-12-14T11:25:56.554Z,29.81786
2022-12-14T11:30:57.581Z,29.68185
2022-12-14T11:35:58.757Z,29.38794
2022-12-14T11:41:00.003Z,28.96773
2022-12-14T11:46:01.080Z,28.37495
2022-12-14T11:51:02.107Z,27.73734
2022-12-14T11:56:03.073Z,27.83813
2022-12-14T12:01:04.046Z,28.04398
2022-12-14T12:06:05.008Z,28.13841
2022-12-14T12:11:05.997Z,27.91696
2022-12-14T12:16:07.189Z,27.33607
2022-12-14T12:21:08.351Z,27.69638
2022-12-14T12:26:09.265Z,27.93993
2022-12-14T12:31:11.116Z,27.77137
2022-12-14T12:36:12.370Z,27.79735
2022-12-14T12:41:13.297Z,27.19517
2022-12-14T12:46:14.277Z,26.87974
2022-12-14T12:51:15.220Z,27.31168
2022-12-14T12:56:16.133Z,27.75245
2022-12-14T13:01:17.309Z,28.17516
2022-12-14T13:06:18.445Z,28.52296
2022-12-14T13:11:27.322Z,28.75358
2022-12-14T13:16:28.853Z,29.01123
2022-12-14T13:21:29.891Z,29.17497
2022-12-14T13:26:56.799Z,29.43095
2022-12-14T13:31:59.027Z,29.62226
2022-12-14T13:37:00.142Z,29.75665
2022-12-14T13:42:01.274Z,29.936
2022-12-14T13:47:02.319Z,30.08568
2022-12-14T13:52:03.311Z,30.27752
2022-12-14T13:57:04.234Z,30.39943
2022-12-14T14:02:05.211Z,30.53207
2022-12-14T14:07:06.093Z,30.69881
2022-12-14T14:12:07.053Z,30.76308
2022-12-14T14:17:08.105Z,30.8569
2022-12-14T14:22:24.119Z,31.06462
2022-12-14T14:27:25.767Z,31.13398
2022-12-14T14:32:26.720Z,31.15161
2022-12-14T14:37:27.639Z,31.23821
2022-12-14T14:42:28.613Z,31.26144
2022-12-14T14:47:29.665Z,31.2676
2022-12-14T14:52:30.673Z,31.29725
2022-12-14T14:57:31.591Z,31.39428
2022-12-14T15:02:32.769Z,31.42847
2022-12-14T15:07:33.745Z,31.53212
2022-12-14T15:12:34.633Z,31.68216
2022-12-14T15:17:35.608Z,31.67024
2022-12-14T15:22:36.523Z,31.6418
2022-12-14T15:27:37.451Z,31.71636
2022-12-14T15:32:40.669Z,31.66595
2022-12-14T15:37:45.200Z,31.75189
2022-12-14T15:42:46.221Z,31.71224
2022-12-14T15:47:49.180Z,31.73508
2022-12-14T15:52:50.634Z,31.76373
2022-12-14T15:57:51.582Z,31.75305
2022-12-14T16:02:52.545Z,31.7424
2022-12-14T16:07:53.490Z,31.82321
2022-12-14T16:12:54.418Z,31.85269
2022-12-14T16:18:01.591Z,31.8411
2022-12-14T16:23:03.468Z,31.76174
2022-12-14T16:28:04.353Z,31.73995
2022-12-14T16:33:05.270Z,31.75146
2022-12-14T16:38:06.178Z,31.78044
2022-12-14T16:43:07.284Z,31.75838
2022-12-14T16:48:08.217Z,31.76442
2022-12-14T16:53:09.143Z,31.83334
2022-12-14T16:58:10.037Z,31.93004
2022-12-14T17:03:11.089Z,31.85058
2022-12-14T17:08:12.079Z,31.84522
2022-12-14T17:13:13.112Z,31.88027
2022-12-14T17:18:14.027Z,31.86971
2022-12-14T17:23:14.947Z,31.89333
2022-12-14T17:28:15.859Z,32.00757
2022-12-14T17:33:16.771Z,32.16686
2022-12-14T17:38:17.692Z,32.17792
2022-12-14T17:43:18.699Z,32.21255
2022-12-14T17:48:19.640Z,32.19599
2022-12-14T17:53:20.605Z,32.25351
2022-12-14T17:58:21.534Z,32.18074
2022-12-14T18:03:22.533Z,32.35241
2022-12-14T18:08:23.560Z,32.4602
2022-12-14T18:13:24.531Z,32.41494
2022-12-14T18:18:25.543Z,32.31363
2022-12-14T18:23:26.509Z,32.45074
2022-12-14T18:28:28.525Z,32.54747
2022-12-14T18:33:29.998Z,32.60443
2022-12-14T18:38:31.328Z,32.5762
2022-12-14T18:43:32.661Z,32.5198
2022-12-14T18:48:33.990Z,32.62279
2022-12-14T18:53:35.208Z,32.6855
2022-12-14T18:58:36.248Z,32.67946
2022-12-14T19:03:37.578Z,32.72559
2022-12-14T19:08:38.636Z,32.65241
2022-12-14T19:13:39.582Z,32.60749
2022-12-14T19:18:40.569Z,32.68142
2022-12-14T19:23:41.442Z,32.70377
2022-12-14T19:28:42.377Z,32.63624
2022-12-14T19:33:43.308Z,32.64786
2022-12-14T19:38:44.241Z,32.60961
2022-12-14T19:43:45.209Z,32.59876
2022-12-14T19:48:46.114Z,32.65554
2022-12-14T19:53:47.073Z,32.63868
2022-12-14T19:58:47.988Z,32.66783
2022-12-14T20:03:49.168Z,32.6061
2022-12-14T20:08:50.159Z,32.65145
2022-12-14T20:13:56.720Z,32.67395
2022-12-14T20:18:59.033Z,32.5731
2022-12-14T20:24:00.234Z,32.46113
2022-12-14T20:29:01.336Z,32.54106
2022-12-14T20:34:02.312Z,32.60967
2022-12-14T20:39:03.260Z,32.66044
2022-12-14T20:44:04.204Z,32.746
2022-12-14T20:49:05.106Z,32.54309
2022-12-14T20:54:06.008Z,32.63402
2022-12-14T20:59:06.949Z,32.61705
2022-12-14T21:04:07.849Z,32.62269
2022-12-14T21:09:08.763Z,32.67954
2022-12-14T21:14:09.687Z,32.64003
2022-12-14T21:19:10.722Z,32.60034
2022-12-14T21:24:17.687Z,32.5381
2022-12-14T21:29:32.337Z,32.40881
2022-12-14T21:34:33.273Z,32.46046
2022-12-14T21:39:34.197Z,32.4608
2022-12-14T21:44:35.162Z,32.39899
2022-12-14T21:49:36.059Z,32.39986
2022-12-14T21:54:37.077Z,32.42849
2022-12-14T21:59:37.990Z,32.44541
2022-12-14T22:04:40.143Z,32.33306
2022-12-14T22:09:41.129Z,32.44627
2022-12-14T22:14:42.092Z,32.42943
2022-12-14T22:19:42.987Z,32.48149
2022-12-14T22:24:43.899Z,32.40817
2022-12-14T22:29:44.854Z,32.36267
2022-12-14T22:34:45.790Z,32.33461
2022-12-14T22:39:48.060Z,32.29518
2022-12-14T22:44:49.268Z,32.30104
2022-12-14T22:49:50.198Z,32.32442
2022-12-14T22:54:51.103Z,32.26779
2022-12-14T22:59:52.059Z,32.30711
2022-12-14T23:04:53.053Z,32.22247
2022-12-14T23:09:53.980Z,32.23446
2022-12-14T23:14:55.002Z,32.16733
2022-12-14T23:19:58.701Z,32.1226
2022-12-14T23:25:03.824Z,32.12319
2022-12-14T23:30:04.893Z,32.09507
2022-12-14T23:35:05.822Z,32.16901
2022-12-14T23:40:06.767Z,32.12457
2022-12-14T23:45:07.748Z,32.18179
2022-12-14T23:50:08.702Z,32.05201
2022-12-14T23:55:09.691Z,32.05229
